sensor_id;sensor_type;location;lat;lon;timestamp;P1;durP1;ratioP1;P2;durP2;ratioP2
34144;SDS011;69555;53.014;8.886;2024-01-10T00:02:18;34.15;;;17.08;;
34144;SDS011;69555;53.014;8.886;2024-01-10T00:04:45;33.63;;;16.95;;
34144;SDS011;69555;53.014;8.886;2024-01-10T00:07:12;34.83;;;16.58;;
34144;SDS011;69555;53.014;8.886;2024-01-10T00:09:39;35.40;;;16.65;;
34144;SDS011;69555;53.014;8.886;2024-01-10T00:12:05;36.42;;;17.58;;
34144;SDS011;69555;53.014;8.886;2024-01-10T00:14:32;36.85;;;16.88;;
34144;SDS011;69555;53.014;8.886;2024-01-10T00:16:58;35.60;;;17.08;;
34144;SDS011;69555;53.014;8.886;2024-01-10T00:19:25;36.38;;;17.85;;
34144;SDS011;69555;53.014;8.886;2024-01-10T00:21:51;36.05;;;17.67;;
34144;SDS011;69555;53.014;8.886;2024-01-10T00:24:18;39.50;;;18.17;;
34144;SDS011;69555;53.014;8.886;2024-01-10T00:26:44;38.15;;;17.38;;
34144;SDS011;69555;53.014;8.886;2024-01-10T00:29:12;31.40;;;16.38;;
34144;SDS011;69555;53.014;8.886;2024-01-10T00:31:38;34.88;;;17.15;;
34144;SDS011;69555;53.014;8.886;2024-01-10T00:34:06;34.85;;;17.30;;
34144;SDS011;69555;53.014;8.886;2024-01-10T00:36:32;41.45;;;18.42;;
34144;SDS011;69555;53.014;8.886;2024-01-10T00:38:59;34.83;;;17.27;;
34144;SDS011;69555;53.014;8.886;2024-01-10T00:41:25;32.05;;;16.75;;
34144;SDS011;69555;53.014;8.886;2024-01-10T00:43:52;39.38;;;17.75;;
34144;SDS011;69555;53.014;8.886;2024-01-10T00:46:19;37.85;;;18.00;;
34144;SDS011;69555;53.014;8.886;2024-01-10T00:48:45;39.60;;;20.85;;
34144;SDS011;69555;53.014;8.886;2024-01-10T00:51:12;44.70;;;20.65;;
34144;SDS011;69555;53.014;8.886;2024-01-10T00:53:39;39.28;;;19.85;;
34144;SDS011;69555;53.014;8.886;2024-01-10T00:56:06;51.15;;;20.90;;
34144;SDS011;69555;53.014;8.886;2024-01-10T00:58:33;35.88;;;17.48;;
34144;SDS011;69555;53.014;8.886;2024-01-10T01:00:59;38.75;;;17.92;;
34144;SDS011;69555;53.014;8.886;2024-01-10T01:03:26;41.50;;;18.65;;
34144;SDS011;69555;53.014;8.886;2024-01-10T01:05:53;34.95;;;17.50;;
34144;SDS011;69555;53.014;8.886;2024-01-10T01:08:19;31.17;;;16.65;;
34144;SDS011;69555;53.014;8.886;2024-01-10T01:10:46;33.95;;;17.50;;
34144;SDS011;69555;53.014;8.886;2024-01-10T01:13:13;34.42;;;17.80;;
34144;SDS011;69555;53.014;8.886;2024-01-10T01:15:39;40.17;;;18.83;;
34144;SDS011;69555;53.014;8.886;2024-01-10T01:18:06;35.63;;;16.83;;
34144;SDS011;69555;53.014;8.886;2024-01-10T01:20:33;35.13;;;16.02;;
34144;SDS011;69555;53.014;8.886;2024-01-10T01:22:59;38.10;;;18.42;;
34144;SDS011;69555;53.014;8.886;2024-01-10T01:25:26;34.95;;;16.33;;
34144;SDS011;69555;53.014;8.886;2024-01-10T01:27:52;38.80;;;17.10;;
34144;SDS011;69555;53.014;8.886;2024-01-10T01:30:18;35.30;;;15.93;;
34144;SDS011;69555;53.014;8.886;2024-01-10T01:32:47;31.88;;;15.57;;
34144;SDS011;69555;53.014;8.886;2024-01-10T01:35:14;30.75;;;14.95;;
34144;SDS011;69555;53.014;8.886;2024-01-10T01:37:42;29.90;;;15.50;;
34144;SDS011;69555;53.014;8.886;2024-01-10T01:40:09;25.20;;;14.05;;
34144;SDS011;69555;53.014;8.886;2024-01-10T01:42:36;32.75;;;16.05;;
34144;SDS011;69555;53.014;8.886;2024-01-10T01:45:02;31.23;;;15.32;;
34144;SDS011;69555;53.014;8.886;2024-01-10T01:47:29;36.95;;;15.88;;
34144;SDS011;69555;53.014;8.886;2024-01-10T01:49:56;38.63;;;17.67;;
34144;SDS011;69555;53.014;8.886;2024-01-10T01:52:23;41.45;;;17.98;;
34144;SDS011;69555;53.014;8.886;2024-01-10T01:54:50;36.30;;;17.42;;
34144;SDS011;69555;53.014;8.886;2024-01-10T01:57:17;37.35;;;18.92;;
34144;SDS011;69555;53.014;8.886;2024-01-10T01:59:44;35.67;;;18.38;;
34144;SDS011;69555;53.014;8.886;2024-01-10T02:02:11;36.03;;;18.20;;
34144;SDS011;69555;53.014;8.886;2024-01-10T02:04:39;41.17;;;18.75;;
34144;SDS011;69555;53.014;8.886;2024-01-10T02:07:07;38.08;;;19.00;;
34144;SDS011;69555;53.014;8.886;2024-01-10T02:09:33;38.63;;;18.77;;
34144;SDS011;69555;53.014;8.886;2024-01-10T02:12:00;35.33;;;18.77;;
34144;SDS011;69555;53.014;8.886;2024-01-10T02:14:27;41.15;;;19.00;;
34144;SDS011;69555;53.014;8.886;2024-01-10T02:16:54;41.05;;;19.55;;
34144;SDS011;69555;53.014;8.886;2024-01-10T02:19:22;39.08;;;19.67;;
34144;SDS011;69555;53.014;8.886;2024-01-10T02:21:51;40.80;;;19.10;;
34144;SDS011;69555;53.014;8.886;2024-01-10T02:24:17;38.40;;;18.05;;
34144;SDS011;69555;53.014;8.886;2024-01-10T02:26:44;39.65;;;18.95;;
34144;SDS011;69555;53.014;8.886;2024-01-10T02:29:10;34.00;;;17.88;;
34144;SDS011;69555;53.014;8.886;2024-01-10T02:31:37;40.40;;;18.48;;
34144;SDS011;69555;53.014;8.886;2024-01-10T02:34:04;43.38;;;18.77;;
34144;SDS011;69555;53.014;8.886;2024-01-10T02:36:30;39.45;;;19.00;;
34144;SDS011;69555;53.014;8.886;2024-01-10T02:38:57;34.25;;;18.02;;
34144;SDS011;69555;53.014;8.886;2024-01-10T02:41:24;40.90;;;19.40;;
34144;SDS011;69555;53.014;8.886;2024-01-10T02:43:51;38.25;;;18.85;;
34144;SDS011;69555;53.014;8.886;2024-01-10T02:46:17;37.25;;;19.35;;
34144;SDS011;69555;53.014;8.886;2024-01-10T02:48:45;35.63;;;18.50;;
34144;SDS011;69555;53.014;8.886;2024-01-10T02:51:12;36.80;;;17.52;;
34144;SDS011;69555;53.014;8.886;2024-01-10T02:53:38;35.58;;;18.50;;
34144;SDS011;69555;53.014;8.886;2024-01-10T02:56:05;45.45;;;19.77;;
34144;SDS011;69555;53.014;8.886;2024-01-10T02:58:31;37.05;;;19.25;;
34144;SDS011;69555;53.014;8.886;2024-01-10T03:00:58;42.47;;;19.08;;
34144;SDS011;69555;53.014;8.886;2024-01-10T03:03:25;36.67;;;18.40;;
34144;SDS011;69555;53.014;8.886;2024-01-10T03:05:51;39.85;;;19.10;;
34144;SDS011;69555;53.014;8.886;2024-01-10T03:08:18;43.90;;;20.17;;
34144;SDS011;69555;53.014;8.886;2024-01-10T03:10:44;38.70;;;19.85;;
34144;SDS011;69555;53.014;8.886;2024-01-10T03:13:11;39.95;;;20.17;;
34144;SDS011;69555;53.014;8.886;2024-01-10T03:15:38;42.30;;;20.58;;
34144;SDS011;69555;53.014;8.886;2024-01-10T03:18:05;44.38;;;20.00;;
34144;SDS011;69555;53.014;8.886;2024-01-10T03:20:32;42.35;;;20.45;;
34144;SDS011;69555;53.014;8.886;2024-01-10T03:22:58;44.72;;;20.13;;
34144;SDS011;69555;53.014;8.886;2024-01-10T03:25:25;37.17;;;18.77;;
34144;SDS011;69555;53.014;8.886;2024-01-10T03:27:52;44.28;;;18.63;;
34144;SDS011;69555;53.014;8.886;2024-01-10T03:30:19;36.40;;;20.25;;
34144;SDS011;69555;53.014;8.886;2024-01-10T03:32:46;38.90;;;19.23;;
34144;SDS011;69555;53.014;8.886;2024-01-10T03:35:13;42.67;;;18.63;;
34144;SDS011;69555;53.014;8.886;2024-01-10T03:37:39;46.78;;;20.92;;
34144;SDS011;69555;53.014;8.886;2024-01-10T03:40:06;43.65;;;19.00;;
34144;SDS011;69555;53.014;8.886;2024-01-10T03:42:33;45.88;;;21.15;;
34144;SDS011;69555;53.014;8.886;2024-01-10T03:45:00;48.47;;;19.52;;
34144;SDS011;69555;53.014;8.886;2024-01-10T03:47:27;45.08;;;20.45;;
34144;SDS011;69555;53.014;8.886;2024-01-10T03:49:53;45.30;;;20.85;;
34144;SDS011;69555;53.014;8.886;2024-01-10T03:52:20;53.90;;;20.40;;
34144;SDS011;69555;53.014;8.886;2024-01-10T03:54:46;46.33;;;20.85;;
34144;SDS011;69555;53.014;8.886;2024-01-10T03:57:13;42.90;;;22.13;;
34144;SDS011;69555;53.014;8.886;2024-01-10T03:59:40;51.13;;;24.35;;
34144;SDS011;69555;53.014;8.886;2024-01-10T04:02:06;49.47;;;24.40;;
34144;SDS011;69555;53.014;8.886;2024-01-10T04:04:36;62.17;;;24.15;;
34144;SDS011;69555;53.014;8.886;2024-01-10T04:07:03;57.15;;;26.17;;
34144;SDS011;69555;53.014;8.886;2024-01-10T04:09:30;46.72;;;24.55;;
34144;SDS011;69555;53.014;8.886;2024-01-10T04:11:56;51.35;;;26.15;;
34144;SDS011;69555;53.014;8.886;2024-01-10T04:14:23;43.53;;;21.33;;
34144;SDS011;69555;53.014;8.886;2024-01-10T04:16:50;53.22;;;23.95;;
34144;SDS011;69555;53.014;8.886;2024-01-10T04:19:18;46.27;;;24.03;;
34144;SDS011;69555;53.014;8.886;2024-01-10T04:21:44;49.80;;;22.83;;
34144;SDS011;69555;53.014;8.886;2024-01-10T04:24:11;53.95;;;24.92;;
34144;SDS011;69555;53.014;8.886;2024-01-10T04:26:38;46.75;;;24.17;;
34144;SDS011;69555;53.014;8.886;2024-01-10T04:29:04;50.60;;;23.73;;
34144;SDS011;69555;53.014;8.886;2024-01-10T04:31:31;52.22;;;24.20;;
34144;SDS011;69555;53.014;8.886;2024-01-10T04:33:58;52.30;;;26.17;;
34144;SDS011;69555;53.014;8.886;2024-01-10T04:36:24;49.20;;;25.80;;
34144;SDS011;69555;53.014;8.886;2024-01-10T04:38:51;56.78;;;26.00;;
34144;SDS011;69555;53.014;8.886;2024-01-10T04:41:18;50.60;;;25.13;;
34144;SDS011;69555;53.014;8.886;2024-01-10T04:43:45;55.53;;;26.88;;
34144;SDS011;69555;53.014;8.886;2024-01-10T04:46:12;52.40;;;24.30;;
34144;SDS011;69555;53.014;8.886;2024-01-10T04:48:39;53.60;;;26.15;;
34144;SDS011;69555;53.014;8.886;2024-01-10T04:51:06;57.22;;;25.70;;
34144;SDS011;69555;53.014;8.886;2024-01-10T04:53:33;52.05;;;26.25;;
34144;SDS011;69555;53.014;8.886;2024-01-10T04:55:59;60.20;;;28.08;;
34144;SDS011;69555;53.014;8.886;2024-01-10T04:58:26;60.10;;;27.25;;
34144;SDS011;69555;53.014;8.886;2024-01-10T05:00:52;53.72;;;26.23;;
34144;SDS011;69555;53.014;8.886;2024-01-10T05:03:18;62.58;;;27.42;;
34144;SDS011;69555;53.014;8.886;2024-01-10T05:05:45;53.38;;;26.27;;
34144;SDS011;69555;53.014;8.886;2024-01-10T05:08:12;47.72;;;25.00;;
34144;SDS011;69555;53.014;8.886;2024-01-10T05:10:38;60.47;;;27.00;;
34144;SDS011;69555;53.014;8.886;2024-01-10T05:13:03;59.50;;;24.83;;
34144;SDS011;69555;53.014;8.886;2024-01-10T05:15:30;53.05;;;23.15;;
34144;SDS011;69555;53.014;8.886;2024-01-10T05:17:57;57.38;;;26.52;;
34144;SDS011;69555;53.014;8.886;2024-01-10T05:20:24;55.83;;;24.92;;
34144;SDS011;69555;53.014;8.886;2024-01-10T05:22:50;50.28;;;25.55;;
34144;SDS011;69555;53.014;8.886;2024-01-10T05:25:17;60.08;;;26.67;;
34144;SDS011;69555;53.014;8.886;2024-01-10T05:27:45;63.45;;;24.88;;
34144;SDS011;69555;53.014;8.886;2024-01-10T05:30:11;59.85;;;25.75;;
34144;SDS011;69555;53.014;8.886;2024-01-10T05:32:39;51.58;;;26.38;;
34144;SDS011;69555;53.014;8.886;2024-01-10T05:35:05;49.28;;;23.27;;
34144;SDS011;69555;53.014;8.886;2024-01-10T05:37:32;58.20;;;23.00;;
34144;SDS011;69555;53.014;8.886;2024-01-10T05:39:59;53.75;;;26.95;;
34144;SDS011;69555;53.014;8.886;2024-01-10T05:42:25;50.97;;;23.73;;
34144;SDS011;69555;53.014;8.886;2024-01-10T05:44:52;47.75;;;24.55;;
34144;SDS011;69555;53.014;8.886;2024-01-10T05:47:19;49.05;;;22.58;;
34144;SDS011;69555;53.014;8.886;2024-01-10T05:49:46;58.90;;;23.25;;
34144;SDS011;69555;53.014;8.886;2024-01-10T05:52:13;60.10;;;23.20;;
34144;SDS011;69555;53.014;8.886;2024-01-10T05:54:39;55.65;;;24.77;;
34144;SDS011;69555;53.014;8.886;2024-01-10T05:57:05;52.45;;;24.83;;
34144;SDS011;69555;53.014;8.886;2024-01-10T05:59:32;46.67;;;21.17;;
34144;SDS011;69555;53.014;8.886;2024-01-10T06:01:58;54.00;;;25.13;;
34144;SDS011;69555;53.014;8.886;2024-01-10T06:04:25;49.72;;;21.98;;
34144;SDS011;69555;53.014;8.886;2024-01-10T06:06:52;41.80;;;21.85;;
34144;SDS011;69555;53.014;8.886;2024-01-10T06:09:18;48.20;;;21.52;;
34144;SDS011;69555;53.014;8.886;2024-01-10T06:14:14;44.50;;;22.05;;
34144;SDS011;69555;53.014;8.886;2024-01-10T06:16:41;47.90;;;21.58;;
34144;SDS011;69555;53.014;8.886;2024-01-10T06:19:08;45.78;;;21.33;;
34144;SDS011;69555;53.014;8.886;2024-01-10T06:21:37;51.50;;;21.98;;
34144;SDS011;69555;53.014;8.886;2024-01-10T06:24:04;46.55;;;20.63;;
34144;SDS011;69555;53.014;8.886;2024-01-10T06:26:31;48.42;;;21.02;;
34144;SDS011;69555;53.014;8.886;2024-01-10T06:28:57;43.75;;;20.70;;
34144;SDS011;69555;53.014;8.886;2024-01-10T06:31:24;45.90;;;18.40;;
34144;SDS011;69555;53.014;8.886;2024-01-10T06:33:51;44.80;;;19.40;;
34144;SDS011;69555;53.014;8.886;2024-01-10T06:36:18;44.85;;;20.30;;
34144;SDS011;69555;53.014;8.886;2024-01-10T06:38:44;43.63;;;18.70;;
34144;SDS011;69555;53.014;8.886;2024-01-10T06:41:11;34.67;;;17.65;;
34144;SDS011;69555;53.014;8.886;2024-01-10T06:43:40;39.70;;;17.50;;
34144;SDS011;69555;53.014;8.886;2024-01-10T06:46:09;42.33;;;18.98;;
34144;SDS011;69555;53.014;8.886;2024-01-10T06:48:37;43.25;;;17.63;;
34144;SDS011;69555;53.014;8.886;2024-01-10T06:51:03;38.75;;;18.25;;
34144;SDS011;69555;53.014;8.886;2024-01-10T06:53:35;40.20;;;17.92;;
34144;SDS011;69555;53.014;8.886;2024-01-10T06:56:01;36.35;;;16.92;;
34144;SDS011;69555;53.014;8.886;2024-01-10T06:58:28;36.53;;;16.88;;
34144;SDS011;69555;53.014;8.886;2024-01-10T07:00:54;30.45;;;15.60;;
34144;SDS011;69555;53.014;8.886;2024-01-10T07:03:21;42.45;;;16.85;;
34144;SDS011;69555;53.014;8.886;2024-01-10T07:05:47;33.17;;;15.77;;
34144;SDS011;69555;53.014;8.886;2024-01-10T07:08:14;36.65;;;15.75;;
34144;SDS011;69555;53.014;8.886;2024-01-10T07:10:43;32.38;;;14.80;;
34144;SDS011;69555;53.014;8.886;2024-01-10T07:13:10;34.85;;;15.73;;
34144;SDS011;69555;53.014;8.886;2024-01-10T07:15:37;32.80;;;16.02;;
34144;SDS011;69555;53.014;8.886;2024-01-10T07:18:05;30.25;;;13.73;;
34144;SDS011;69555;53.014;8.886;2024-01-10T07:20:32;28.92;;;14.00;;
34144;SDS011;69555;53.014;8.886;2024-01-10T07:22:59;34.55;;;15.85;;
34144;SDS011;69555;53.014;8.886;2024-01-10T07:25:25;30.98;;;16.27;;
34144;SDS011;69555;53.014;8.886;2024-01-10T07:27:52;36.33;;;15.73;;
34144;SDS011;69555;53.014;8.886;2024-01-10T07:30:18;29.95;;;15.57;;
34144;SDS011;69555;53.014;8.886;2024-01-10T07:32:45;28.67;;;14.43;;
34144;SDS011;69555;53.014;8.886;2024-01-10T07:35:12;28.55;;;14.48;;
34144;SDS011;69555;53.014;8.886;2024-01-10T07:37:43;31.73;;;15.23;;
34144;SDS011;69555;53.014;8.886;2024-01-10T07:40:10;33.45;;;14.25;;
34144;SDS011;69555;53.014;8.886;2024-01-10T07:42:37;31.27;;;13.68;;
34144;SDS011;69555;53.014;8.886;2024-01-10T07:45:05;33.55;;;15.00;;
34144;SDS011;69555;53.014;8.886;2024-01-10T07:47:33;30.83;;;14.88;;
34144;SDS011;69555;53.014;8.886;2024-01-10T07:50:04;26.10;;;12.55;;
34144;SDS011;69555;53.014;8.886;2024-01-10T07:52:32;28.35;;;13.80;;
34144;SDS011;69555;53.014;8.886;2024-01-10T07:54:59;23.08;;;11.95;;
34144;SDS011;69555;53.014;8.886;2024-01-10T07:57:27;30.70;;;14.20;;
34144;SDS011;69555;53.014;8.886;2024-01-10T07:59:54;30.33;;;13.63;;
34144;SDS011;69555;53.014;8.886;2024-01-10T08:02:20;26.63;;;12.68;;
34144;SDS011;69555;53.014;8.886;2024-01-10T08:04:46;21.88;;;12.20;;
34144;SDS011;69555;53.014;8.886;2024-01-10T08:07:12;30.83;;;12.27;;
34144;SDS011;69555;53.014;8.886;2024-01-10T08:09:39;26.50;;;13.32;;
34144;SDS011;69555;53.014;8.886;2024-01-10T08:12:06;29.50;;;14.13;;
34144;SDS011;69555;53.014;8.886;2024-01-10T08:14:33;31.20;;;13.32;;
34144;SDS011;69555;53.014;8.886;2024-01-10T08:17:01;23.85;;;12.40;;
34144;SDS011;69555;53.014;8.886;2024-01-10T08:19:28;28.95;;;11.90;;
34144;SDS011;69555;53.014;8.886;2024-01-10T08:21:54;23.50;;;12.02;;
34144;SDS011;69555;53.014;8.886;2024-01-10T08:24:21;26.92;;;11.80;;
34144;SDS011;69555;53.014;8.886;2024-01-10T08:26:47;28.30;;;13.43;;
34144;SDS011;69555;53.014;8.886;2024-01-10T08:29:18;25.83;;;12.38;;
34144;SDS011;69555;53.014;8.886;2024-01-10T08:31:45;24.83;;;12.65;;
34144;SDS011;69555;53.014;8.886;2024-01-10T08:34:12;24.42;;;11.50;;
34144;SDS011;69555;53.014;8.886;2024-01-10T08:36:38;29.48;;;13.32;;
34144;SDS011;69555;53.014;8.886;2024-01-10T08:39:05;24.85;;;13.43;;
34144;SDS011;69555;53.014;8.886;2024-01-10T08:41:33;24.95;;;12.48;;
34144;SDS011;69555;53.014;8.886;2024-01-10T08:44:00;23.92;;;10.75;;
34144;SDS011;69555;53.014;8.886;2024-01-10T08:46:26;25.85;;;11.98;;
34144;SDS011;69555;53.014;8.886;2024-01-10T08:48:53;23.40;;;11.40;;
34144;SDS011;69555;53.014;8.886;2024-01-10T08:51:19;27.55;;;13.32;;
34144;SDS011;69555;53.014;8.886;2024-01-10T08:53:46;26.48;;;13.27;;
34144;SDS011;69555;53.014;8.886;2024-01-10T08:56:12;22.88;;;12.05;;
34144;SDS011;69555;53.014;8.886;2024-01-10T08:58:39;28.38;;;13.10;;
34144;SDS011;69555;53.014;8.886;2024-01-10T09:01:05;30.13;;;12.38;;
34144;SDS011;69555;53.014;8.886;2024-01-10T09:03:34;22.95;;;11.13;;
34144;SDS011;69555;53.014;8.886;2024-01-10T09:05:59;25.63;;;12.00;;
34144;SDS011;69555;53.014;8.886;2024-01-10T09:08:26;23.10;;;11.60;;
34144;SDS011;69555;53.014;8.886;2024-01-10T09:10:54;21.17;;;12.35;;
34144;SDS011;69555;53.014;8.886;2024-01-10T09:13:21;26.58;;;12.35;;
34144;SDS011;69555;53.014;8.886;2024-01-10T09:15:48;27.25;;;13.60;;
34144;SDS011;69555;53.014;8.886;2024-01-10T09:18:13;21.08;;;10.85;;
34144;SDS011;69555;53.014;8.886;2024-01-10T09:20:40;22.08;;;10.35;;
34144;SDS011;69555;53.014;8.886;2024-01-10T09:23:06;22.88;;;11.65;;
34144;SDS011;69555;53.014;8.886;2024-01-10T09:25:33;22.00;;;10.73;;
34144;SDS011;69555;53.014;8.886;2024-01-10T09:28:00;19.30;;;10.05;;
34144;SDS011;69555;53.014;8.886;2024-01-10T09:30:26;20.73;;;10.40;;
34144;SDS011;69555;53.014;8.886;2024-01-10T09:32:53;20.52;;;10.02;;
34144;SDS011;69555;53.014;8.886;2024-01-10T09:35:20;19.60;;;10.52;;
34144;SDS011;69555;53.014;8.886;2024-01-10T09:37:47;17.13;;;9.48;;
34144;SDS011;69555;53.014;8.886;2024-01-10T09:40:14;23.92;;;10.50;;
34144;SDS011;69555;53.014;8.886;2024-01-10T09:42:45;17.25;;;9.65;;
34144;SDS011;69555;53.014;8.886;2024-01-10T09:45:15;23.48;;;10.80;;
34144;SDS011;69555;53.014;8.886;2024-01-10T09:47:45;19.48;;;11.45;;
34144;SDS011;69555;53.014;8.886;2024-01-10T09:50:17;18.23;;;9.85;;
34144;SDS011;69555;53.014;8.886;2024-01-10T09:52:48;21.88;;;9.95;;
34144;SDS011;69555;53.014;8.886;2024-01-10T09:55:17;22.63;;;10.27;;
34144;SDS011;69555;53.014;8.886;2024-01-10T09:57:47;22.25;;;11.18;;
34144;SDS011;69555;53.014;8.886;2024-01-10T10:00:15;20.50;;;9.73;;
34144;SDS011;69555;53.014;8.886;2024-01-10T10:02:43;19.03;;;10.23;;
34144;SDS011;69555;53.014;8.886;2024-01-10T10:05:17;20.08;;;9.15;;
34144;SDS011;69555;53.014;8.886;2024-01-10T10:07:44;25.60;;;10.40;;
34144;SDS011;69555;53.014;8.886;2024-01-10T10:10:12;17.27;;;9.23;;
34144;SDS011;69555;53.014;8.886;2024-01-10T10:15:15;21.27;;;9.40;;
34144;SDS011;69555;53.014;8.886;2024-01-10T10:17:43;21.80;;;9.90;;
34144;SDS011;69555;53.014;8.886;2024-01-10T10:23:00;22.75;;;10.30;;
34144;SDS011;69555;53.014;8.886;2024-01-10T10:25:37;21.48;;;10.43;;
34144;SDS011;69555;53.014;8.886;2024-01-10T10:28:09;21.10;;;10.00;;
34144;SDS011;69555;53.014;8.886;2024-01-10T10:30:36;26.88;;;10.90;;
34144;SDS011;69555;53.014;8.886;2024-01-10T10:33:03;25.60;;;11.00;;
34144;SDS011;69555;53.014;8.886;2024-01-10T10:35:32;25.65;;;11.73;;
34144;SDS011;69555;53.014;8.886;2024-01-10T10:37:59;23.83;;;11.07;;
34144;SDS011;69555;53.014;8.886;2024-01-10T10:40:25;23.60;;;11.18;;
34144;SDS011;69555;53.014;8.886;2024-01-10T10:42:55;28.95;;;11.20;;
34144;SDS011;69555;53.014;8.886;2024-01-10T10:45:23;25.38;;;11.48;;
34144;SDS011;69555;53.014;8.886;2024-01-10T10:48:00;19.70;;;10.68;;
34144;SDS011;69555;53.014;8.886;2024-01-10T10:50:35;20.95;;;10.30;;
34144;SDS011;69555;53.014;8.886;2024-01-10T10:53:02;20.92;;;11.13;;
34144;SDS011;69555;53.014;8.886;2024-01-10T10:55:29;21.80;;;11.38;;
34144;SDS011;69555;53.014;8.886;2024-01-10T11:00:27;24.02;;;11.57;;
34144;SDS011;69555;53.014;8.886;2024-01-10T11:02:54;22.40;;;11.00;;
34144;SDS011;69555;53.014;8.886;2024-01-10T11:05:22;18.90;;;9.48;;
34144;SDS011;69555;53.014;8.886;2024-01-10T11:07:50;18.63;;;9.90;;
34144;SDS011;69555;53.014;8.886;2024-01-10T11:10:32;20.70;;;10.10;;
34144;SDS011;69555;53.014;8.886;2024-01-10T11:22:17;20.40;;;9.93;;
34144;SDS011;69555;53.014;8.886;2024-01-10T11:25:04;19.23;;;9.85;;
34144;SDS011;69555;53.014;8.886;2024-01-10T11:27:31;19.13;;;9.95;;
34144;SDS011;69555;53.014;8.886;2024-01-10T11:29:57;27.75;;;9.80;;
34144;SDS011;69555;53.014;8.886;2024-01-10T11:32:25;17.67;;;9.25;;
34144;SDS011;69555;53.014;8.886;2024-01-10T11:35:04;19.52;;;9.55;;
34144;SDS011;69555;53.014;8.886;2024-01-10T11:37:42;20.10;;;8.63;;
34144;SDS011;69555;53.014;8.886;2024-01-10T11:40:13;18.08;;;8.52;;
34144;SDS011;69555;53.014;8.886;2024-01-10T11:42:45;20.70;;;9.02;;
34144;SDS011;69555;53.014;8.886;2024-01-10T11:48:00;19.75;;;9.20;;
34144;SDS011;69555;53.014;8.886;2024-01-10T11:50:27;15.80;;;7.97;;
34144;SDS011;69555;53.014;8.886;2024-01-10T11:52:54;18.95;;;8.65;;
34144;SDS011;69555;53.014;8.886;2024-01-10T11:58:20;20.30;;;8.35;;
34144;SDS011;69555;53.014;8.886;2024-01-10T12:01:16;22.05;;;9.05;;
34144;SDS011;69555;53.014;8.886;2024-01-10T12:03:42;20.60;;;10.15;;
34144;SDS011;69555;53.014;8.886;2024-01-10T12:06:08;21.70;;;9.05;;
34144;SDS011;69555;53.014;8.886;2024-01-10T12:08:33;22.02;;;9.18;;
34144;SDS011;69555;53.014;8.886;2024-01-10T12:10:59;16.30;;;8.70;;
34144;SDS011;69555;53.014;8.886;2024-01-10T12:13:26;19.77;;;8.52;;
34144;SDS011;69555;53.014;8.886;2024-01-10T12:15:52;16.00;;;8.02;;
34144;SDS011;69555;53.014;8.886;2024-01-10T12:18:17;21.48;;;10.48;;
34144;SDS011;69555;53.014;8.886;2024-01-10T12:20:42;22.65;;;8.20;;
34144;SDS011;69555;53.014;8.886;2024-01-10T12:23:10;17.30;;;8.18;;
34144;SDS011;69555;53.014;8.886;2024-01-10T12:25:36;15.07;;;8.00;;
34144;SDS011;69555;53.014;8.886;2024-01-10T12:28:02;18.85;;;7.80;;
34144;SDS011;69555;53.014;8.886;2024-01-10T12:30:28;17.33;;;8.73;;
34144;SDS011;69555;53.014;8.886;2024-01-10T12:32:53;15.15;;;7.53;;
34144;SDS011;69555;53.014;8.886;2024-01-10T12:35:19;21.42;;;9.05;;
34144;SDS011;69555;53.014;8.886;2024-01-10T12:37:55;17.63;;;8.45;;
34144;SDS011;69555;53.014;8.886;2024-01-10T12:40:21;15.70;;;7.68;;
34144;SDS011;69555;53.014;8.886;2024-01-10T12:42:46;20.73;;;7.53;;
34144;SDS011;69555;53.014;8.886;2024-01-10T12:45:21;17.92;;;7.63;;
34144;SDS011;69555;53.014;8.886;2024-01-10T12:47:48;15.93;;;7.63;;
34144;SDS011;69555;53.014;8.886;2024-01-10T12:50:13;17.20;;;7.88;;
34144;SDS011;69555;53.014;8.886;2024-01-10T12:52:40;15.98;;;7.30;;
34144;SDS011;69555;53.014;8.886;2024-01-10T12:55:07;15.60;;;7.95;;
34144;SDS011;69555;53.014;8.886;2024-01-10T12:57:33;18.88;;;8.15;;
34144;SDS011;69555;53.014;8.886;2024-01-10T12:59:58;16.63;;;8.35;;
34144;SDS011;69555;53.014;8.886;2024-01-10T13:02:24;14.90;;;7.50;;
34144;SDS011;69555;53.014;8.886;2024-01-10T13:04:49;22.25;;;8.93;;
34144;SDS011;69555;53.014;8.886;2024-01-10T13:07:15;17.88;;;7.93;;
34144;SDS011;69555;53.014;8.886;2024-01-10T13:09:40;17.42;;;7.95;;
34144;SDS011;69555;53.014;8.886;2024-01-10T13:12:06;16.00;;;7.20;;
34144;SDS011;69555;53.014;8.886;2024-01-10T13:14:32;20.42;;;8.43;;
34144;SDS011;69555;53.014;8.886;2024-01-10T13:16:58;13.10;;;7.47;;
34144;SDS011;69555;53.014;8.886;2024-01-10T13:19:24;20.60;;;9.45;;
34144;SDS011;69555;53.014;8.886;2024-01-10T13:21:49;16.83;;;7.75;;
34144;SDS011;69555;53.014;8.886;2024-01-10T13:24:15;13.93;;;7.57;;
34144;SDS011;69555;53.014;8.886;2024-01-10T13:26:40;15.57;;;7.45;;
34144;SDS011;69555;53.014;8.886;2024-01-10T13:29:06;16.85;;;7.80;;
34144;SDS011;69555;53.014;8.886;2024-01-10T13:31:32;19.83;;;8.40;;
34144;SDS011;69555;53.014;8.886;2024-01-10T13:33:57;13.50;;;6.85;;
34144;SDS011;69555;53.014;8.886;2024-01-10T13:36:23;20.05;;;8.65;;
34144;SDS011;69555;53.014;8.886;2024-01-10T13:38:48;20.77;;;7.55;;
34144;SDS011;69555;53.014;8.886;2024-01-10T13:41:13;15.10;;;8.20;;
34144;SDS011;69555;53.014;8.886;2024-01-10T13:43:39;19.30;;;7.95;;
34144;SDS011;69555;53.014;8.886;2024-01-10T13:46:05;16.00;;;7.63;;
34144;SDS011;69555;53.014;8.886;2024-01-10T13:48:30;14.43;;;7.40;;
34144;SDS011;69555;53.014;8.886;2024-01-10T13:50:56;14.88;;;7.10;;
34144;SDS011;69555;53.014;8.886;2024-01-10T13:53:21;16.90;;;7.90;;
34144;SDS011;69555;53.014;8.886;2024-01-10T13:55:47;13.68;;;7.45;;
34144;SDS011;69555;53.014;8.886;2024-01-10T13:58:12;15.80;;;8.15;;
34144;SDS011;69555;53.014;8.886;2024-01-10T14:00:37;18.35;;;9.50;;
34144;SDS011;69555;53.014;8.886;2024-01-10T14:03:03;16.08;;;7.78;;
34144;SDS011;69555;53.014;8.886;2024-01-10T14:05:29;16.15;;;8.90;;
34144;SDS011;69555;53.014;8.886;2024-01-10T14:07:55;15.27;;;8.25;;
34144;SDS011;69555;53.014;8.886;2024-01-10T14:10:21;13.88;;;7.55;;
34144;SDS011;69555;53.014;8.886;2024-01-10T14:12:47;16.70;;;7.55;;
34144;SDS011;69555;53.014;8.886;2024-01-10T14:15:12;16.38;;;7.25;;
34144;SDS011;69555;53.014;8.886;2024-01-10T14:17:39;15.40;;;7.55;;
34144;SDS011;69555;53.014;8.886;2024-01-10T14:20:05;21.20;;;7.63;;
34144;SDS011;69555;53.014;8.886;2024-01-10T14:22:34;18.77;;;8.68;;
34144;SDS011;69555;53.014;8.886;2024-01-10T14:25:00;15.45;;;7.40;;
34144;SDS011;69555;53.014;8.886;2024-01-10T14:27:26;18.35;;;7.90;;
34144;SDS011;69555;53.014;8.886;2024-01-10T14:29:51;19.73;;;7.70;;
34144;SDS011;69555;53.014;8.886;2024-01-10T14:32:16;17.05;;;8.75;;
34144;SDS011;69555;53.014;8.886;2024-01-10T14:34:42;19.40;;;8.27;;
34144;SDS011;69555;53.014;8.886;2024-01-10T14:37:08;15.52;;;8.45;;
34144;SDS011;69555;53.014;8.886;2024-01-10T14:39:34;21.98;;;10.25;;
34144;SDS011;69555;53.014;8.886;2024-01-10T14:42:04;12.63;;;6.93;;
34144;SDS011;69555;53.014;8.886;2024-01-10T14:44:30;20.67;;;9.02;;
34144;SDS011;69555;53.014;8.886;2024-01-10T14:46:56;17.63;;;8.48;;
34144;SDS011;69555;53.014;8.886;2024-01-10T14:49:21;18.52;;;8.73;;
34144;SDS011;69555;53.014;8.886;2024-01-10T14:51:46;18.52;;;8.55;;